sensor_id;sensor_type;location;lat;lon;timestamp;P1;durP1;ratioP1;P2;durP2;ratioP2
30181;SDS011;16990;49.056;9.240;2022-07-29T00:02:27;8.57;;;5.50;;
30181;SDS011;16990;49.056;9.240;2022-07-29T00:04:54;8.95;;;5.18;;
30181;SDS011;16990;49.056;9.240;2022-07-29T00:07:20;10.65;;;6.00;;
30181;SDS011;16990;49.056;9.240;2022-07-29T00:09:47;11.00;;;5.72;;
30181;SDS011;16990;49.056;9.240;2022-07-29T00:12:14;11.48;;;5.63;;
30181;SDS011;16990;49.056;9.240;2022-07-29T00:14:40;6.63;;;5.05;;
30181;SDS011;16990;49.056;9.240;2022-07-29T00:17:07;8.95;;;5.07;;
30181;SDS011;16990;49.056;9.240;2022-07-29T00:19:35;10.02;;;5.95;;
30181;SDS011;16990;49.056;9.240;2022-07-29T00:22:02;11.65;;;5.30;;
30181;SDS011;16990;49.056;9.240;2022-07-29T00:24:28;7.82;;;5.65;;
30181;SDS011;16990;49.056;9.240;2022-07-29T00:26:55;6.13;;;4.53;;
30181;SDS011;16990;49.056;9.240;2022-07-29T00:29:22;9.50;;;5.75;;
30181;SDS011;16990;49.056;9.240;2022-07-29T00:31:48;9.77;;;5.63;;
30181;SDS011;16990;49.056;9.240;2022-07-29T00:34:15;9.32;;;5.03;;
30181;SDS011;16990;49.056;9.240;2022-07-29T00:37:01;9.60;;;5.80;;
30181;SDS011;16990;49.056;9.240;2022-07-29T00:39:27;12.02;;;5.88;;
30181;SDS011;16990;49.056;9.240;2022-07-29T00:41:54;10.43;;;6.03;;
30181;SDS011;16990;49.056;9.240;2022-07-29T00:44:21;7.88;;;5.70;;
30181;SDS011;16990;49.056;9.240;2022-07-29T00:46:48;9.48;;;5.70;;
30181;SDS011;16990;49.056;9.240;2022-07-29T00:49:14;13.75;;;5.75;;
30181;SDS011;16990;49.056;9.240;2022-07-29T00:51:41;9.25;;;5.82;;
30181;SDS011;16990;49.056;9.240;2022-07-29T00:54:09;17.73;;;6.25;;
30181;SDS011;16990;49.056;9.240;2022-07-29T00:56:36;12.95;;;5.50;;
30181;SDS011;16990;49.056;9.240;2022-07-29T00:59:03;6.25;;;5.63;;
30181;SDS011;16990;49.056;9.240;2022-07-29T01:01:29;11.13;;;5.07;;
30181;SDS011;16990;49.056;9.240;2022-07-29T01:03:56;10.77;;;5.40;;
30181;SDS011;16990;49.056;9.240;2022-07-29T01:06:23;8.40;;;5.68;;
30181;SDS011;16990;49.056;9.240;2022-07-29T01:08:50;8.35;;;5.47;;
30181;SDS011;16990;49.056;9.240;2022-07-29T01:11:19;8.90;;;5.63;;
30181;SDS011;16990;49.056;9.240;2022-07-29T01:13:46;8.20;;;5.30;;
30181;SDS011;16990;49.056;9.240;2022-07-29T01:16:15;9.70;;;6.22;;
30181;SDS011;16990;49.056;9.240;2022-07-29T01:18:47;12.25;;;5.65;;
30181;SDS011;16990;49.056;9.240;2022-07-29T01:21:21;8.90;;;5.68;;
30181;SDS011;16990;49.056;9.240;2022-07-29T01:24:11;7.88;;;5.32;;
30181;SDS011;16990;49.056;9.240;2022-07-29T01:26:58;7.07;;;5.20;;
30181;SDS011;16990;49.056;9.240;2022-07-29T01:29:30;10.40;;;5.47;;
30181;SDS011;16990;49.056;9.240;2022-07-29T01:32:03;10.60;;;5.80;;
30181;SDS011;16990;49.056;9.240;2022-07-29T01:34:35;8.10;;;5.57;;
30181;SDS011;16990;49.056;9.240;2022-07-29T01:37:09;6.45;;;5.53;;
30181;SDS011;16990;49.056;9.240;2022-07-29T01:39:41;11.27;;;5.53;;
30181;SDS011;16990;49.056;9.240;2022-07-29T01:42:12;9.77;;;5.63;;
30181;SDS011;16990;49.056;9.240;2022-07-29T01:47:25;7.07;;;5.30;;
30181;SDS011;16990;49.056;9.240;2022-07-29T01:49:56;8.18;;;5.40;;
30181;SDS011;16990;49.056;9.240;2022-07-29T01:52:25;6.60;;;5.30;;
30181;SDS011;16990;49.056;9.240;2022-07-29T01:54:57;12.88;;;5.95;;
30181;SDS011;16990;49.056;9.240;2022-07-29T01:57:29;13.95;;;6.40;;
30181;SDS011;16990;49.056;9.240;2022-07-29T01:59:59;9.93;;;5.88;;
30181;SDS011;16990;49.056;9.240;2022-07-29T02:02:28;10.93;;;5.30;;
30181;SDS011;16990;49.056;9.240;2022-07-29T02:04:57;7.45;;;5.50;;
30181;SDS011;16990;49.056;9.240;2022-07-29T02:07:26;8.13;;;6.05;;
30181;SDS011;16990;49.056;9.240;2022-07-29T02:09:55;8.80;;;6.45;;
30181;SDS011;16990;49.056;9.240;2022-07-29T02:12:24;11.15;;;6.35;;
30181;SDS011;16990;49.056;9.240;2022-07-29T02:14:53;8.82;;;5.53;;
30181;SDS011;16990;49.056;9.240;2022-07-29T02:17:24;7.55;;;5.82;;
30181;SDS011;16990;49.056;9.240;2022-07-29T02:19:54;8.18;;;5.95;;
30181;SDS011;16990;49.056;9.240;2022-07-29T02:22:25;8.25;;;6.00;;
30181;SDS011;16990;49.056;9.240;2022-07-29T02:24:54;12.63;;;6.47;;
30181;SDS011;16990;49.056;9.240;2022-07-29T02:27:21;10.20;;;6.50;;
30181;SDS011;16990;49.056;9.240;2022-07-29T02:29:49;8.05;;;6.07;;
30181;SDS011;16990;49.056;9.240;2022-07-29T02:32:18;9.05;;;6.05;;
30181;SDS011;16990;49.056;9.240;2022-07-29T02:34:48;18.80;;;8.60;;
30181;SDS011;16990;49.056;9.240;2022-07-29T02:37:17;13.35;;;8.80;;
30181;SDS011;16990;49.056;9.240;2022-07-29T02:39:45;12.48;;;7.55;;
30181;SDS011;16990;49.056;9.240;2022-07-29T02:42:15;19.17;;;11.93;;
30181;SDS011;16990;49.056;9.240;2022-07-29T02:44:43;20.77;;;12.00;;
30181;SDS011;16990;49.056;9.240;2022-07-29T02:47:11;20.80;;;10.52;;
30181;SDS011;16990;49.056;9.240;2022-07-29T02:49:43;13.95;;;8.02;;
30181;SDS011;16990;49.056;9.240;2022-07-29T02:52:19;12.35;;;6.80;;
30181;SDS011;16990;49.056;9.240;2022-07-29T02:54:51;11.32;;;6.30;;
30181;SDS011;16990;49.056;9.240;2022-07-29T02:57:22;9.93;;;6.90;;
30181;SDS011;16990;49.056;9.240;2022-07-29T02:59:56;9.88;;;6.30;;
30181;SDS011;16990;49.056;9.240;2022-07-29T03:02:25;10.10;;;5.82;;
30181;SDS011;16990;49.056;9.240;2022-07-29T03:04:55;9.48;;;6.10;;
30181;SDS011;16990;49.056;9.240;2022-07-29T03:07:24;9.50;;;6.20;;
30181;SDS011;16990;49.056;9.240;2022-07-29T03:09:51;10.70;;;5.80;;
30181;SDS011;16990;49.056;9.240;2022-07-29T03:12:19;7.93;;;5.60;;
30181;SDS011;16990;49.056;9.240;2022-07-29T03:14:46;6.88;;;5.28;;
30181;SDS011;16990;49.056;9.240;2022-07-29T03:17:14;10.90;;;5.95;;
30181;SDS011;16990;49.056;9.240;2022-07-29T03:19:41;7.88;;;5.57;;
30181;SDS011;16990;49.056;9.240;2022-07-29T03:22:10;12.35;;;6.05;;
30181;SDS011;16990;49.056;9.240;2022-07-29T03:24:38;7.15;;;5.75;;
30181;SDS011;16990;49.056;9.240;2022-07-29T03:27:04;11.50;;;6.10;;
30181;SDS011;16990;49.056;9.240;2022-07-29T03:29:31;7.45;;;6.07;;
30181;SDS011;16990;49.056;9.240;2022-07-29T03:31:58;12.50;;;6.38;;
30181;SDS011;16990;49.056;9.240;2022-07-29T03:34:25;11.60;;;7.00;;
30181;SDS011;16990;49.056;9.240;2022-07-29T03:36:52;17.30;;;6.07;;
30181;SDS011;16990;49.056;9.240;2022-07-29T03:39:21;13.55;;;6.70;;
30181;SDS011;16990;49.056;9.240;2022-07-29T03:41:52;9.43;;;5.90;;
30181;SDS011;16990;49.056;9.240;2022-07-29T03:44:21;12.48;;;6.85;;
30181;SDS011;16990;49.056;9.240;2022-07-29T03:46:50;8.85;;;6.07;;
30181;SDS011;16990;49.056;9.240;2022-07-29T03:49:18;13.88;;;6.57;;
30181;SDS011;16990;49.056;9.240;2022-07-29T03:51:46;9.18;;;6.20;;
30181;SDS011;16990;49.056;9.240;2022-07-29T03:54:13;9.80;;;6.30;;
30181;SDS011;16990;49.056;9.240;2022-07-29T03:56:42;10.68;;;6.75;;
30181;SDS011;16990;49.056;9.240;2022-07-29T03:59:12;10.52;;;6.22;;
30181;SDS011;16990;49.056;9.240;2022-07-29T04:01:40;11.10;;;6.80;;
30181;SDS011;16990;49.056;9.240;2022-07-29T04:04:07;10.60;;;6.70;;
30181;SDS011;16990;49.056;9.240;2022-07-29T04:06:38;7.45;;;5.38;;
30181;SDS011;16990;49.056;9.240;2022-07-29T04:09:06;11.70;;;6.10;;
30181;SDS011;16990;49.056;9.240;2022-07-29T04:11:33;23.90;;;7.40;;
30181;SDS011;16990;49.056;9.240;2022-07-29T04:14:02;14.52;;;6.78;;
30181;SDS011;16990;49.056;9.240;2022-07-29T04:16:28;12.95;;;7.10;;
30181;SDS011;16990;49.056;9.240;2022-07-29T04:18:55;12.20;;;6.20;;
30181;SDS011;16990;49.056;9.240;2022-07-29T04:21:22;15.07;;;6.90;;
30181;SDS011;16990;49.056;9.240;2022-07-29T04:23:48;10.10;;;8.00;;
30181;SDS011;16990;49.056;9.240;2022-07-29T04:26:16;9.70;;;6.93;;
30181;SDS011;16990;49.056;9.240;2022-07-29T04:28:42;16.23;;;7.35;;
30181;SDS011;16990;49.056;9.240;2022-07-29T04:36:18;13.00;;;6.15;;
30181;SDS011;16990;49.056;9.240;2022-07-29T04:38:45;11.23;;;6.82;;
30181;SDS011;16990;49.056;9.240;2022-07-29T04:41:12;7.60;;;6.03;;
30181;SDS011;16990;49.056;9.240;2022-07-29T04:43:38;10.25;;;6.28;;
30181;SDS011;16990;49.056;9.240;2022-07-29T04:46:05;7.70;;;6.10;;
30181;SDS011;16990;49.056;9.240;2022-07-29T04:48:32;6.78;;;5.63;;
30181;SDS011;16990;49.056;9.240;2022-07-29T04:50:59;8.25;;;5.72;;
30181;SDS011;16990;49.056;9.240;2022-07-29T04:53:27;10.23;;;6.05;;
30181;SDS011;16990;49.056;9.240;2022-07-29T04:55:54;10.27;;;6.38;;
30181;SDS011;16990;49.056;9.240;2022-07-29T04:58:20;10.38;;;6.53;;
30181;SDS011;16990;49.056;9.240;2022-07-29T05:00:48;11.25;;;6.68;;
30181;SDS011;16990;49.056;9.240;2022-07-29T05:03:15;11.35;;;7.57;;
30181;SDS011;16990;49.056;9.240;2022-07-29T05:05:41;11.50;;;8.27;;
30181;SDS011;16990;49.056;9.240;2022-07-29T05:08:08;10.77;;;7.07;;
30181;SDS011;16990;49.056;9.240;2022-07-29T05:10:36;19.38;;;7.70;;
30181;SDS011;16990;49.056;9.240;2022-07-29T05:13:03;14.73;;;6.93;;
30181;SDS011;16990;49.056;9.240;2022-07-29T05:15:31;15.57;;;6.38;;
30181;SDS011;16990;49.056;9.240;2022-07-29T05:17:58;13.38;;;6.82;;
30181;SDS011;16990;49.056;9.240;2022-07-29T05:20:24;13.18;;;6.70;;
30181;SDS011;16990;49.056;9.240;2022-07-29T05:22:53;14.27;;;6.40;;
30181;SDS011;16990;49.056;9.240;2022-07-29T05:25:20;13.85;;;6.63;;
30181;SDS011;16990;49.056;9.240;2022-07-29T05:27:48;9.25;;;6.75;;
30181;SDS011;16990;49.056;9.240;2022-07-29T05:30:15;15.90;;;6.72;;
30181;SDS011;16990;49.056;9.240;2022-07-29T05:32:42;11.15;;;6.93;;
30181;SDS011;16990;49.056;9.240;2022-07-29T05:35:09;10.85;;;6.25;;
30181;SDS011;16990;49.056;9.240;2022-07-29T05:37:36;8.98;;;6.90;;
30181;SDS011;16990;49.056;9.240;2022-07-29T05:40:03;16.63;;;6.32;;
30181;SDS011;16990;49.056;9.240;2022-07-29T05:42:31;12.05;;;6.75;;
30181;SDS011;16990;49.056;9.240;2022-07-29T05:44:59;11.70;;;7.63;;
30181;SDS011;16990;49.056;9.240;2022-07-29T05:47:26;12.60;;;6.97;;
30181;SDS011;16990;49.056;9.240;2022-07-29T05:49:53;9.68;;;7.05;;
30181;SDS011;16990;49.056;9.240;2022-07-29T05:52:20;10.20;;;6.97;;
30181;SDS011;16990;49.056;9.240;2022-07-29T05:54:47;19.60;;;7.05;;
30181;SDS011;16990;49.056;9.240;2022-07-29T05:57:17;13.00;;;7.25;;
30181;SDS011;16990;49.056;9.240;2022-07-29T05:59:44;8.23;;;6.00;;
30181;SDS011;16990;49.056;9.240;2022-07-29T06:02:12;8.38;;;5.65;;
30181;SDS011;16990;49.056;9.240;2022-07-29T06:04:38;17.13;;;6.38;;
30181;SDS011;16990;49.056;9.240;2022-07-29T06:07:05;9.82;;;6.15;;
30181;SDS011;16990;49.056;9.240;2022-07-29T06:09:32;10.43;;;6.18;;
30181;SDS011;16990;49.056;9.240;2022-07-29T06:11:59;9.30;;;6.38;;
30181;SDS011;16990;49.056;9.240;2022-07-29T06:14:25;11.30;;;6.40;;
30181;SDS011;16990;49.056;9.240;2022-07-29T06:16:53;12.23;;;6.43;;
30181;SDS011;16990;49.056;9.240;2022-07-29T06:19:21;11.02;;;6.32;;
30181;SDS011;16990;49.056;9.240;2022-07-29T06:21:48;17.60;;;6.65;;
30181;SDS011;16990;49.056;9.240;2022-07-29T06:24:15;9.90;;;6.32;;
30181;SDS011;16990;49.056;9.240;2022-07-29T06:26:42;7.07;;;5.60;;
30181;SDS011;16990;49.056;9.240;2022-07-29T06:29:09;10.98;;;5.45;;
30181;SDS011;16990;49.056;9.240;2022-07-29T06:31:36;6.47;;;5.25;;
30181;SDS011;16990;49.056;9.240;2022-07-29T06:34:03;7.97;;;4.97;;
30181;SDS011;16990;49.056;9.240;2022-07-29T06:36:33;6.88;;;4.70;;
30181;SDS011;16990;49.056;9.240;2022-07-29T06:39:03;7.20;;;4.43;;
30181;SDS011;16990;49.056;9.240;2022-07-29T06:41:30;11.18;;;5.00;;
30181;SDS011;16990;49.056;9.240;2022-07-29T06:43:57;6.57;;;3.80;;
30181;SDS011;16990;49.056;9.240;2022-07-29T06:46:24;4.95;;;3.83;;
30181;SDS011;16990;49.056;9.240;2022-07-29T06:48:51;5.70;;;3.58;;
30181;SDS011;16990;49.056;9.240;2022-07-29T06:51:18;11.93;;;4.25;;
30181;SDS011;16990;49.056;9.240;2022-07-29T06:53:46;4.53;;;3.33;;
30181;SDS011;16990;49.056;9.240;2022-07-29T06:56:12;5.43;;;3.72;;
30181;SDS011;16990;49.056;9.240;2022-07-29T06:58:39;10.38;;;3.78;;
30181;SDS011;16990;49.056;9.240;2022-07-29T07:01:05;6.15;;;3.90;;
30181;SDS011;16990;49.056;9.240;2022-07-29T07:03:32;6.22;;;3.92;;
30181;SDS011;16990;49.056;9.240;2022-07-29T07:05:59;5.05;;;3.17;;
30181;SDS011;16990;49.056;9.240;2022-07-29T07:08:26;6.50;;;3.85;;
30181;SDS011;16990;49.056;9.240;2022-07-29T07:10:54;5.43;;;3.55;;
30181;SDS011;16990;49.056;9.240;2022-07-29T07:13:22;6.20;;;3.63;;
30181;SDS011;16990;49.056;9.240;2022-07-29T07:15:49;4.85;;;3.38;;
30181;SDS011;16990;49.056;9.240;2022-07-29T07:18:17;4.03;;;3.30;;
30181;SDS011;16990;49.056;9.240;2022-07-29T07:20:44;5.70;;;3.13;;
30181;SDS011;16990;49.056;9.240;2022-07-29T07:23:11;3.67;;;3.08;;
30181;SDS011;16990;49.056;9.240;2022-07-29T07:25:38;5.07;;;2.90;;
30181;SDS011;16990;49.056;9.240;2022-07-29T07:28:06;9.00;;;3.33;;
30181;SDS011;16990;49.056;9.240;2022-07-29T07:30:32;5.53;;;2.80;;
30181;SDS011;16990;49.056;9.240;2022-07-29T07:32:59;5.82;;;3.78;;
30181;SDS011;16990;49.056;9.240;2022-07-29T07:35:26;9.13;;;3.20;;
30181;SDS011;16990;49.056;9.240;2022-07-29T07:37:54;9.43;;;3.97;;
30181;SDS011;16990;49.056;9.240;2022-07-29T07:40:22;3.33;;;3.03;;
30181;SDS011;16990;49.056;9.240;2022-07-29T07:42:49;4.75;;;3.08;;
30181;SDS011;16990;49.056;9.240;2022-07-29T07:45:17;7.70;;;3.42;;
30181;SDS011;16990;49.056;9.240;2022-07-29T07:47:43;4.22;;;2.92;;
30181;SDS011;16990;49.056;9.240;2022-07-29T07:50:11;5.07;;;3.15;;
30181;SDS011;16990;49.056;9.240;2022-07-29T07:52:45;12.15;;;3.78;;
30181;SDS011;16990;49.056;9.240;2022-07-29T07:55:13;4.50;;;3.50;;
30181;SDS011;16990;49.056;9.240;2022-07-29T07:57:40;11.25;;;3.97;;
30181;SDS011;16990;49.056;9.240;2022-07-29T08:00:07;4.57;;;3.47;;
30181;SDS011;16990;49.056;9.240;2022-07-29T08:02:36;8.13;;;3.38;;
30181;SDS011;16990;49.056;9.240;2022-07-29T08:05:03;5.68;;;3.10;;
30181;SDS011;16990;49.056;9.240;2022-07-29T08:07:30;6.72;;;3.67;;
30181;SDS011;16990;49.056;9.240;2022-07-29T08:09:57;5.47;;;3.60;;
30181;SDS011;16990;49.056;9.240;2022-07-29T08:12:23;4.85;;;3.17;;
30181;SDS011;16990;49.056;9.240;2022-07-29T08:14:50;4.20;;;3.30;;
30181;SDS011;16990;49.056;9.240;2022-07-29T08:17:16;6.15;;;3.40;;
30181;SDS011;16990;49.056;9.240;2022-07-29T08:19:44;5.93;;;3.67;;
30181;SDS011;16990;49.056;9.240;2022-07-29T08:22:13;4.70;;;3.45;;
30181;SDS011;16990;49.056;9.240;2022-07-29T08:24:40;4.72;;;3.63;;
30181;SDS011;16990;49.056;9.240;2022-07-29T08:27:09;6.03;;;3.80;;
30181;SDS011;16990;49.056;9.240;2022-07-29T08:29:36;8.77;;;4.47;;
30181;SDS011;16990;49.056;9.240;2022-07-29T08:32:04;6.97;;;4.28;;
30181;SDS011;16990;49.056;9.240;2022-07-29T08:34:31;6.82;;;3.97;;
30181;SDS011;16990;49.056;9.240;2022-07-29T08:37:00;6.90;;;4.30;;
30181;SDS011;16990;49.056;9.240;2022-07-29T08:39:26;5.20;;;3.22;;
30181;SDS011;16990;49.056;9.240;2022-07-29T08:41:53;9.88;;;4.32;;
30181;SDS011;16990;49.056;9.240;2022-07-29T08:44:20;5.30;;;4.10;;
30181;SDS011;16990;49.056;9.240;2022-07-29T08:46:47;5.78;;;4.53;;
30181;SDS011;16990;49.056;9.240;2022-07-29T08:49:14;6.07;;;4.30;;
30181;SDS011;16990;49.056;9.240;2022-07-29T08:51:41;8.60;;;4.40;;
30181;SDS011;16990;49.056;9.240;2022-07-29T08:54:10;8.93;;;4.95;;
30181;SDS011;16990;49.056;9.240;2022-07-29T08:56:37;5.88;;;4.28;;
30181;SDS011;16990;49.056;9.240;2022-07-29T08:59:06;7.57;;;4.95;;
30181;SDS011;16990;49.056;9.240;2022-07-29T09:01:34;6.35;;;3.90;;
30181;SDS011;16990;49.056;9.240;2022-07-29T09:04:03;11.85;;;4.13;;
30181;SDS011;16990;49.056;9.240;2022-07-29T09:06:32;8.57;;;4.60;;
30181;SDS011;16990;49.056;9.240;2022-07-29T09:09:02;5.07;;;3.63;;
30181;SDS011;16990;49.056;9.240;2022-07-29T09:11:33;9.38;;;4.43;;
30181;SDS011;16990;49.056;9.240;2022-07-29T09:14:00;14.23;;;5.00;;
30181;SDS011;16990;49.056;9.240;2022-07-29T09:16:36;8.95;;;3.92;;
30181;SDS011;16990;49.056;9.240;2022-07-29T09:19:15;9.02;;;3.72;;
30181;SDS011;16990;49.056;9.240;2022-07-29T09:21:45;6.55;;;4.10;;
30181;SDS011;16990;49.056;9.240;2022-07-29T09:24:25;9.50;;;4.45;;
30181;SDS011;16990;49.056;9.240;2022-07-29T09:27:10;11.93;;;4.68;;
30181;SDS011;16990;49.056;9.240;2022-07-29T09:29:47;9.05;;;4.70;;
30181;SDS011;16990;49.056;9.240;2022-07-29T09:32:21;10.07;;;4.47;;
30181;SDS011;16990;49.056;9.240;2022-07-29T09:34:47;8.68;;;4.47;;
30181;SDS011;16990;49.056;9.240;2022-07-29T09:37:25;10.13;;;4.43;;
30181;SDS011;16990;49.056;9.240;2022-07-29T09:39:52;5.50;;;4.13;;
30181;SDS011;16990;49.056;9.240;2022-07-29T09:42:28;8.85;;;4.40;;
30181;SDS011;16990;49.056;9.240;2022-07-29T09:44:57;13.23;;;4.93;;
30181;SDS011;16990;49.056;9.240;2022-07-29T09:47:27;12.00;;;4.95;;
30181;SDS011;16990;49.056;9.240;2022-07-29T09:50:07;7.95;;;5.05;;
30181;SDS011;16990;49.056;9.240;2022-07-29T09:52:41;12.73;;;4.35;;
30181;SDS011;16990;49.056;9.240;2022-07-29T09:55:12;12.70;;;5.75;;
30181;SDS011;16990;49.056;9.240;2022-07-29T09:57:40;7.63;;;4.65;;
30181;SDS011;16990;49.056;9.240;2022-07-29T10:00:08;8.20;;;4.53;;
30181;SDS011;16990;49.056;9.240;2022-07-29T10:02:36;9.45;;;5.03;;
30181;SDS011;16990;49.056;9.240;2022-07-29T10:05:05;9.98;;;5.00;;
30181;SDS011;16990;49.056;9.240;2022-07-29T10:07:45;6.13;;;4.35;;
30181;SDS011;16990;49.056;9.240;2022-07-29T10:10:18;8.50;;;4.28;;
30181;SDS011;16990;49.056;9.240;2022-07-29T10:12:50;9.82;;;6.35;;
30181;SDS011;16990;49.056;9.240;2022-07-29T10:15:20;15.00;;;5.47;;
30181;SDS011;16990;49.056;9.240;2022-07-29T10:17:48;6.32;;;4.60;;
30181;SDS011;16990;49.056;9.240;2022-07-29T10:20:15;8.63;;;4.70;;
30181;SDS011;16990;49.056;9.240;2022-07-29T10:22:42;14.43;;;5.50;;
30181;SDS011;16990;49.056;9.240;2022-07-29T10:25:09;10.93;;;5.68;;
30181;SDS011;16990;49.056;9.240;2022-07-29T10:27:36;10.45;;;4.68;;
30181;SDS011;16990;49.056;9.240;2022-07-29T10:30:06;9.13;;;4.28;;
30181;SDS011;16990;49.056;9.240;2022-07-29T10:32:44;5.45;;;3.95;;
30181;SDS011;16990;49.056;9.240;2022-07-29T10:41:16;7.85;;;4.53;;
30181;SDS011;16990;49.056;9.240;2022-07-29T10:43:57;6.30;;;3.97;;
30181;SDS011;16990;49.056;9.240;2022-07-29T10:46:28;8.40;;;4.20;;
30181;SDS011;16990;49.056;9.240;2022-07-29T10:49:04;5.78;;;3.85;;
30181;SDS011;16990;49.056;9.240;2022-07-29T10:54:47;7.47;;;3.90;;
30181;SDS011;16990;49.056;9.240;2022-07-29T10:57:17;7.53;;;4.07;;
30181;SDS011;16990;49.056;9.240;2022-07-29T10:59:51;6.82;;;3.63;;
30181;SDS011;16990;49.056;9.240;2022-07-29T11:02:45;12.77;;;4.72;;
30181;SDS011;16990;49.056;9.240;2022-07-29T11:05:16;12.93;;;4.00;;
30181;SDS011;16990;49.056;9.240;2022-07-29T11:10:48;6.30;;;4.05;;
30181;SDS011;16990;49.056;9.240;2022-07-29T11:16:14;10.13;;;4.13;;
30181;SDS011;16990;49.056;9.240;2022-07-29T11:21:46;7.65;;;3.38;;
30181;SDS011;16990;49.056;9.240;2022-07-29T11:24:16;8.35;;;3.55;;
30181;SDS011;16990;49.056;9.240;2022-07-29T11:26:43;6.13;;;3.88;;
30181;SDS011;16990;49.056;9.240;2022-07-29T11:29:16;5.65;;;3.50;;
30181;SDS011;16990;49.056;9.240;2022-07-29T11:31:46;4.90;;;3.50;;
30181;SDS011;16990;49.056;9.240;2022-07-29T11:34:21;8.40;;;4.23;;
30181;SDS011;16990;49.056;9.240;2022-07-29T11:39:43;6.88;;;3.78;;
30181;SDS011;16990;49.056;9.240;2022-07-29T11:45:04;6.35;;;3.67;;
30181;SDS011;16990;49.056;9.240;2022-07-29T11:47:32;5.72;;;3.45;;
30181;SDS011;16990;49.056;9.240;2022-07-29T11:50:03;6.88;;;4.03;;
30181;SDS011;16990;49.056;9.240;2022-07-29T11:52:32;9.75;;;3.80;;
30181;SDS011;16990;49.056;9.240;2022-07-29T11:55:03;6.90;;;4.07;;
30181;SDS011;16990;49.056;9.240;2022-07-29T11:57:31;10.98;;;4.38;;
30181;SDS011;16990;49.056;9.240;2022-07-29T12:00:00;4.85;;;3.58;;
30181;SDS011;16990;49.056;9.240;2022-07-29T12:02:38;8.38;;;3.85;;
30181;SDS011;16990;49.056;9.240;2022-07-29T12:05:08;7.35;;;3.85;;
30181;SDS011;16990;49.056;9.240;2022-07-29T12:07:36;6.97;;;3.70;;
30181;SDS011;16990;49.056;9.240;2022-07-29T12:10:04;4.63;;;3.50;;
30181;SDS011;16990;49.056;9.240;2022-07-29T12:12:32;8.68;;;3.70;;
30181;SDS011;16990;49.056;9.240;2022-07-29T12:15:09;13.82;;;3.70;;
30181;SDS011;16990;49.056;9.240;2022-07-29T12:17:37;7.07;;;3.17;;
30181;SDS011;16990;49.056;9.240;2022-07-29T12:20:04;9.00;;;3.88;;
30181;SDS011;16990;49.056;9.240;2022-07-29T12:22:34;6.95;;;3.33;;
30181;SDS011;16990;49.056;9.240;2022-07-29T12:25:03;5.72;;;3.45;;
30181;SDS011;16990;49.056;9.240;2022-07-29T12:27:32;7.75;;;3.33;;
30181;SDS011;16990;49.056;9.240;2022-07-29T12:29:59;9.40;;;3.78;;
30181;SDS011;16990;49.056;9.240;2022-07-29T12:32:31;8.63;;;2.88;;
30181;SDS011;16990;49.056;9.240;2022-07-29T12:34:59;7.47;;;3.17;;
30181;SDS011;16990;49.056;9.240;2022-07-29T12:37:28;10.73;;;3.33;;
30181;SDS011;16990;49.056;9.240;2022-07-29T12:39:56;11.40;;;3.20;;
30181;SDS011;16990;49.056;9.240;2022-07-29T12:42:23;6.53;;;3.90;;
30181;SDS011;16990;49.056;9.240;2022-07-29T12:44:50;7.28;;;2.92;;
30181;SDS011;16990;49.056;9.240;2022-07-29T12:47:18;8.93;;;3.22;;
30181;SDS011;16990;49.056;9.240;2022-07-29T12:49:46;6.85;;;3.22;;
30181;SDS011;16990;49.056;9.240;2022-07-29T12:52:23;4.45;;;3.00;;
30181;SDS011;16990;49.056;9.240;2022-07-29T12:54:50;8.02;;;3.13;;
30181;SDS011;16990;49.056;9.240;2022-07-29T12:57:18;16.30;;;3.65;;
30181;SDS011;16990;49.056;9.240;2022-07-29T12:59:45;10.90;;;2.47;;
30181;SDS011;16990;49.056;9.240;2022-07-29T13:02:25;6.60;;;3.03;;
30181;SDS011;16990;49.056;9.240;2022-07-29T13:04:55;12.25;;;3.80;;
30181;SDS011;16990;49.056;9.240;2022-07-29T13:07:23;9.57;;;3.75;;
30181;SDS011;16990;49.056;9.240;2022-07-29T13:09:51;7.10;;;3.75;;
30181;SDS011;16990;49.056;9.240;2022-07-29T13:12:19;9.68;;;3.38;;
30181;SDS011;16990;49.056;9.240;2022-07-29T13:14:46;12.10;;;4.13;;
30181;SDS011;16990;49.056;9.240;2022-07-29T13:17:15;5.95;;;3.78;;
30181;SDS011;16990;49.056;9.240;2022-07-29T13:19:42;10.18;;;3.38;;
30181;SDS011;16990;49.056;9.240;2022-07-29T13:22:11;8.70;;;3.65;;
30181;SDS011;16990;49.056;9.240;2022-07-29T13:24:45;9.93;;;4.07;;
30181;SDS011;16990;49.056;9.240;2022-07-29T13:27:13;13.07;;;3.42;;
30181;SDS011;16990;49.056;9.240;2022-07-29T13:29:42;9.60;;;3.83;;
30181;SDS011;16990;49.056;9.240;2022-07-29T13:32:08;10.77;;;3.80;;
30181;SDS011;16990;49.056;9.240;2022-07-29T13:34:35;8.07;;;4.45;;
30181;SDS011;16990;49.056;9.240;2022-07-29T13:37:02;13.18;;;3.50;;
30181;SDS011;16990;49.056;9.240;2022-07-29T13:39:28;15.35;;;3.03;;
30181;SDS011;16990;49.056;9.240;2022-07-29T13:41:55;7.72;;;3.50;;
30181;SDS011;16990;49.056;9.240;2022-07-29T13:44:22;6.85;;;3.20;;
30181;SDS011;16990;49.056;9.240;2022-07-29T13:46:50;9.95;;;4.18;;
30181;SDS011;16990;49.056;9.240;2022-07-29T13:49:17;12.80;;;3.45;;
30181;SDS011;16990;49.056;9.240;2022-07-29T13:51:43;7.95;;;3.58;;
30181;SDS011;16990;49.056;9.240;2022-07-29T13:54:10;6.28;;;2.83;;
30181;SDS011;16990;49.056;9.240;2022-07-29T13:56:37;6.18;;;3.50;;
30181;SDS011;16990;49.056;9.240;2022-07-29T13:59:03;6.57;;;2.85;;
30181;SDS011;16990;49.056;9.240;2022-07-29T14:01:30;8.95;;;3.67;;
30181;SDS011;16990;49.056;9.240;2022-07-29T14:03:58;9.50;;;3.75;;
30181;SDS011;16990;49.056;9.240;2022-07-29T14:06:25;7.47;;;3.63;;
30181;SDS011;16990;49.056;9.240;2022-07-29T14:08:51;10.18;;;3.90;;
30181;SDS011;16990;49.056;9.240;2022-07-29T14:11:18;7.15;;;3.15;;
30181;SDS011;16990;49.056;9.240;2022-07-29T14:13:45;6.47;;;3.10;;
30181;SDS011;16990;49.056;9.240;2022-07-29T14:16:12;5.72;;;3.25;;
30181;SDS011;16990;49.056;9.240;2022-07-29T14:18:40;10.23;;;3.28;;
30181;SDS011;16990;49.056;9.240;2022-07-29T14:21:08;12.70;;;3.05;;
30181;SDS011;16990;49.056;9.240;2022-07-29T14:23:35;11.98;;;3.20;;
30181;SDS011;16990;49.056;9.240;2022-07-29T14:26:02;6.30;;;2.90;;
30181;SDS011;16990;49.056;9.240;2022-07-29T14:28:29;4.00;;;2.67;;
30181;SDS011;16990;49.056;9.240;2022-07-29T14:30:56;10.35;;;3.50;;
30181;SDS011;16990;49.056;9.240;2022-07-29T14:33:22;4.53;;;2.78;;
30181;SDS011;16990;49.056;9.240;2022-07-29T14:35:49;8.60;;;3.40;;
30181;SDS011;16990;49.056;9.240;2022-07-29T14:38:17;6.07;;;2.80;;
30181;SDS011;16990;49.056;9.240;2022-07-29T14:40:44;6.22;;;3.15;;
30181;SDS011;16990;49.056;9.240;2022-07-29T14:43:11;5.45;;;3.05;;
30181;SDS011;16990;49.056;9.240;2022-07-29T14:45:38;10.40;;;2.83;;
30181;SDS011;16990;49.056;9.240;2022-07-29T14:48:05;7.03;;;3.25;;
30181;SDS011;16990;49.056;9.240;2022-07-29T14:50:32;5.35;;;3.17;;
30181;SDS011;16990;49.056;9.240;2022-07-29T14:52:59;8.25;;;3.30;;
30181;SDS011;16990;49.056;9.240;2022-07-29T14:55:27;5.38;;;2.42;;
30181;SDS011;16990;49.056;9.240;2022-07-29T14:57:54;12.82;;;3.17;;
30181;SDS011;16990;49.056;9.240;2022-07-29T15:00:21;8.00;;;2.72;;
30181;SDS011;16990;49.056;9.240;2022-07-29T15:02:48;11.13;;;3.53;;
30181;SDS011;16990;49.056;9.240;2022-07-29T15:05:14;8.48;;;3.38;;
30181;SDS011;16990;49.056;9.240;2022-07-29T15:07:41;9.10;;;2.80;;
30181;SDS011;16990;49.056;9.240;2022-07-29T15:10:08;4.88;;;2.47;;
30181;SDS011;16990;49.056;9.240;2022-07-29T15:12:36;4.80;;;2.05;;
30181;SDS011;16990;49.056;9.240;2022-07-29T15:15:03;8.52;;;2.60;;
30181;SDS011;16990;49.056;9.240;2022-07-29T15:17:30;16.50;;;2.75;;
30181;SDS011;16990;49.056;9.240;2022-07-29T15:19:56;5.40;;;2.38;;
30181;SDS011;16990;49.056;9.240;2022-07-29T15:22:23;11.07;;;2.78;;
30181;SDS011;16990;49.056;9.240;2022-07-29T15:24:50;9.15;;;2.30;;